createdAt,value
2023-02-13T00:01:36.281Z,81.67
2023-02-13T00:04:05.642Z,87.00
2023-02-13T00:06:34.149Z,81.00
2023-02-13T00:09:03.225Z,78.75
2023-02-13T00:11:32.437Z,74.50
2023-02-13T00:14:01.372Z,74.50
2023-02-13T00:16:29.933Z,80.50
2023-02-13T00:19:00.106Z,73.75
2023-02-13T00:21:28.962Z,96.75
2023-02-13T00:23:58.113Z,98.25
2023-02-13T00:26:26.791Z,94.75
2023-02-13T00:28:55.693Z,103.50
2023-02-13T00:31:26.489Z,99.00
2023-02-13T00:33:55.621Z,84.00
2023-02-13T00:36:25.614Z,96.00
2023-02-13T00:38:55.435Z,94.25
2023-02-13T00:41:24.588Z,88.33
2023-02-13T00:43:53.707Z,84.67
2023-02-13T00:46:22.545Z,83.25
2023-02-13T00:48:51.410Z,80.25
2023-02-13T00:51:19.986Z,100.75
2023-02-13T00:53:50.165Z,98.00
2023-02-13T00:56:18.701Z,104.50
2023-02-13T00:58:47.607Z,106.25
2023-02-13T01:01:16.435Z,115.25
2023-02-13T01:03:45.602Z,112.00
2023-02-13T01:06:14.190Z,121.75
2023-02-13T01:08:43.305Z,107.50
2023-02-13T01:11:13.373Z,103.50
2023-02-13T01:13:43.407Z,92.50
2023-02-13T01:16:12.088Z,94.00
2023-02-13T01:18:40.981Z,101.50
2023-02-13T01:21:16.854Z,110.00
2023-02-13T01:23:45.981Z,97.25
2023-02-13T01:26:19.879Z,103.00
2023-02-13T01:28:49.077Z,105.50
2023-02-13T01:31:17.628Z,104.75
2023-02-13T01:33:46.615Z,100.50
2023-02-13T01:36:15.286Z,106.50
2023-02-13T01:38:44.610Z,97.00
2023-02-13T01:41:13.810Z,87.33
2023-02-13T01:43:50.497Z,94.67
2023-02-13T01:46:25.834Z,87.75
2023-02-13T01:48:59.220Z,96.50
2023-02-13T01:51:36.081Z,98.25
2023-02-13T01:54:09.053Z,101.75
2023-02-13T01:56:44.141Z,94.75
2023-02-13T01:59:19.166Z,106.25
2023-02-13T02:01:49.205Z,112.50
2023-02-13T02:04:23.422Z,116.50
2023-02-13T02:06:55.818Z,112.75
2023-02-13T02:09:31.923Z,79.00
2023-02-13T02:12:06.295Z,137.75
2023-02-13T02:14:41.589Z,117.00
2023-02-13T02:17:13.135Z,120.00
2023-02-13T02:19:50.621Z,119.25
2023-02-13T02:22:52.430Z,131.50
2023-02-13T02:25:48.495Z,143.00
2023-02-13T02:28:43.039Z,138.00
2023-02-13T02:31:51.783Z,136.25
2023-02-13T02:34:31.728Z,129.75
2023-02-13T02:37:14.677Z,129.25
2023-02-13T02:39:56.838Z,136.75
2023-02-13T02:42:38.162Z,127.00
2023-02-13T02:45:12.971Z,119.25
2023-02-13T02:48:11.027Z,115.00
2023-02-13T02:50:45.665Z,109.25
2023-02-13T02:53:30.646Z,109.50
2023-02-13T02:56:05.453Z,116.00
2023-02-13T02:58:59.440Z,109.50
2023-02-13T03:01:50.842Z,112.25
2023-02-13T03:04:44.926Z,109.50
2023-02-13T03:07:17.686Z,109.00
2023-02-13T03:10:07.348Z,101.50
2023-02-13T03:12:59.624Z,109.50
2023-02-13T03:15:29.928Z,104.50
2023-02-13T03:18:17.115Z,109.50
2023-02-13T03:21:12.217Z,113.50
2023-02-13T03:23:52.025Z,104.00
2023-02-13T03:26:50.367Z,106.50
2023-02-13T03:29:51.758Z,108.25
2023-02-13T03:32:28.021Z,105.75
2023-02-13T03:35:23.560Z,103.00
2023-02-13T03:38:02.362Z,100.25
2023-02-13T03:40:37.152Z,101.50
2023-02-13T03:43:13.143Z,108.25
2023-02-13T03:45:57.356Z,98.50
2023-02-13T03:48:47.622Z,102.00
2023-02-13T03:51:21.613Z,101.25
2023-02-13T03:53:57.221Z,105.00
2023-02-13T03:56:46.153Z,45.00
2023-02-13T03:59:23.281Z,104.00
2023-02-13T04:02:00.798Z,103.75
2023-02-13T04:04:40.222Z,104.25
2023-02-13T04:07:12.777Z,108.25
2023-02-13T04:09:44.765Z,105.00
2023-02-13T04:12:20.127Z,108.50
2023-02-13T04:14:56.084Z,102.75
2023-02-13T04:17:31.571Z,97.25
2023-02-13T04:20:00.817Z,93.00
2023-02-13T04:22:29.406Z,101.50
2023-02-13T04:24:59.636Z,107.75
2023-02-13T04:27:29.677Z,100.75
2023-02-13T04:29:58.478Z,100.50
2023-02-13T04:32:27.243Z,94.00
2023-02-13T04:34:56.106Z,100.50
2023-02-13T04:37:25.572Z,101.75
2023-02-13T04:39:54.404Z,102.25
2023-02-13T04:42:24.434Z,103.25
2023-02-13T04:44:53.247Z,98.50
2023-02-13T04:47:21.746Z,105.50
2023-02-13T04:49:50.585Z,98.50
2023-02-13T04:52:19.218Z,103.00
2023-02-13T04:54:48.085Z,97.25
2023-02-13T04:57:16.669Z,76.75
2023-02-13T04:59:46.915Z,100.75
2023-02-13T05:02:15.527Z,99.50
2023-02-13T05:04:44.488Z,95.50
2023-02-13T05:07:13.107Z,96.50
2023-02-13T05:09:42.091Z,100.50
2023-02-13T05:12:10.596Z,95.25
2023-02-13T05:14:39.585Z,103.25
2023-02-13T05:17:09.510Z,135.00
2023-02-13T05:19:38.446Z,110.75
2023-02-13T05:22:24.557Z,105.00
2023-02-13T05:24:53.449Z,96.25
2023-02-13T05:27:22.012Z,98.50
2023-02-13T05:29:50.948Z,98.25
2023-02-13T05:32:20.850Z,101.50
2023-02-13T05:34:49.722Z,101.25
2023-02-13T05:37:18.318Z,100.75
2023-02-13T05:39:47.170Z,103.00
2023-02-13T05:42:15.810Z,105.50
2023-02-13T05:44:44.757Z,106.25
2023-02-13T05:47:13.329Z,109.75
2023-02-13T05:49:43.640Z,99.50
2023-02-13T05:52:12.216Z,104.25
2023-02-13T05:54:41.187Z,97.25
2023-02-13T05:57:09.753Z,105.00
2023-02-13T05:59:38.802Z,104.50
2023-02-13T06:02:07.397Z,105.00
2023-02-13T06:04:36.282Z,104.25
2023-02-13T06:07:06.230Z,100.75
2023-02-13T06:09:35.094Z,103.00
2023-02-13T06:12:03.629Z,100.50
2023-02-13T06:14:32.579Z,101.75
2023-02-13T06:17:02.399Z,100.00
2023-02-13T06:19:31.287Z,107.50
2023-02-13T06:21:59.870Z,105.25
2023-02-13T06:24:30.045Z,113.50
2023-02-13T06:26:58.950Z,105.25
2023-02-13T06:29:27.834Z,108.50
2023-02-13T06:31:57.532Z,104.50
2023-02-13T06:34:26.452Z,106.00
2023-02-13T06:36:55.142Z,100.25
2023-02-13T06:39:24.119Z,110.50
2023-02-13T06:41:54.270Z,107.00
2023-02-13T06:44:23.063Z,75.25
2023-02-13T06:46:51.599Z,102.50
2023-02-13T06:49:21.139Z,105.25
2023-02-13T06:51:49.750Z,116.25
2023-02-13T06:54:18.707Z,116.50
2023-02-13T06:56:47.330Z,116.25
2023-02-13T06:59:17.588Z,110.75
2023-02-13T07:01:46.143Z,118.50
2023-02-13T07:04:15.087Z,106.50
2023-02-13T07:06:43.619Z,116.50
2023-02-13T07:09:13.545Z,107.75
2023-02-13T07:11:42.213Z,102.75
2023-02-13T07:14:11.521Z,103.00
2023-02-13T07:16:41.573Z,102.00
2023-02-13T07:19:10.442Z,102.50
2023-02-13T07:21:39.026Z,104.50
2023-02-13T07:24:08.377Z,101.25
2023-02-13T07:26:37.012Z,96.00
2023-02-13T07:29:11.512Z,103.50
2023-02-13T07:31:42.044Z,93.75
2023-02-13T07:34:10.864Z,90.75
2023-02-13T07:36:40.322Z,98.75
2023-02-13T07:39:09.380Z,96.50
2023-02-13T07:41:37.977Z,89.50
2023-02-13T07:44:09.287Z,63.75
2023-02-13T07:46:38.083Z,97.50
2023-02-13T07:49:08.345Z,94.25
2023-02-13T07:51:36.863Z,84.33
2023-02-13T07:54:05.811Z,93.75
2023-02-13T07:56:34.598Z,92.25
2023-02-13T07:59:03.572Z,98.25
2023-02-13T08:01:32.430Z,95.00
2023-02-13T08:04:01.509Z,94.50
2023-02-13T08:06:31.540Z,96.75
2023-02-13T08:09:17.936Z,95.00
2023-02-13T08:11:55.855Z,93.75
2023-02-13T08:14:26.309Z,88.00
2023-02-13T08:16:56.655Z,80.33
2023-02-13T08:19:25.711Z,87.00
2023-02-13T08:21:55.765Z,82.33
2023-02-13T08:24:24.890Z,77.33
2023-02-13T08:26:53.665Z,82.33
2023-02-13T08:29:22.538Z,79.33
2023-02-13T08:31:51.545Z,89.00
2023-02-13T08:34:20.530Z,90.00
2023-02-13T08:36:49.276Z,82.00
2023-02-13T08:39:19.549Z,70.00
2023-02-13T08:41:48.145Z,81.33
2023-02-13T08:44:17.983Z,85.25
2023-02-13T08:46:46.637Z,68.00
2023-02-13T08:49:15.739Z,76.75
2023-02-13T08:51:44.474Z,80.00
2023-02-13T08:54:13.306Z,80.00
2023-02-13T08:56:43.564Z,75.33
2023-02-13T08:59:12.452Z,65.75
2023-02-13T09:01:41.501Z,70.50
2023-02-13T09:04:10.420Z,67.00
2023-02-13T09:06:39.254Z,70.75
2023-02-13T09:09:08.127Z,68.25
2023-02-13T09:11:36.721Z,64.00
2023-02-13T09:14:07.022Z,63.00
2023-02-13T09:16:35.664Z,77.25
2023-02-13T09:19:05.191Z,57.25
2023-02-13T09:21:33.827Z,67.50
2023-02-13T09:24:02.803Z,70.50
2023-02-13T09:26:31.423Z,71.00
2023-02-13T09:29:00.398Z,72.00
2023-02-13T09:31:30.366Z,82.33
2023-02-13T09:33:59.287Z,77.33
2023-02-13T09:36:27.936Z,76.33
2023-02-13T09:38:58.787Z,74.75
2023-02-13T09:41:30.589Z,68.75
2023-02-13T09:44:02.483Z,70.75
2023-02-13T09:46:36.907Z,91.00
2023-02-13T09:49:09.745Z,71.00
2023-02-13T09:51:38.697Z,62.25
2023-02-13T09:54:10.077Z,65.75
2023-02-13T09:56:50.075Z,70.50
2023-02-13T09:59:35.290Z,71.00
2023-02-13T10:02:23.961Z,65.50
2023-02-13T10:05:02.321Z,65.00
2023-02-13T10:07:38.012Z,55.75
2023-02-13T10:10:21.266Z,56.50
2023-02-13T10:13:07.374Z,34.75
2023-02-13T10:15:43.515Z,52.75
2023-02-13T10:18:18.368Z,56.75
2023-02-13T10:20:50.648Z,55.75
2023-02-13T10:23:26.103Z,47.00
2023-02-13T10:26:00.281Z,52.75
2023-02-13T10:28:39.462Z,47.50
2023-02-13T10:31:13.450Z,53.00
2023-02-13T10:34:00.118Z,52.25
2023-02-13T10:36:32.465Z,55.75
2023-02-13T10:39:12.726Z,53.75
2023-02-13T10:41:51.738Z,51.00
2023-02-13T10:44:41.661Z,53.00
2023-02-13T10:47:23.532Z,61.25
2023-02-13T10:50:04.612Z,56.50
2023-02-13T10:52:45.683Z,61.75
2023-02-13T10:55:33.128Z,61.25
2023-02-13T10:58:14.324Z,66.00
2023-02-13T11:00:50.060Z,71.50
2023-02-13T11:03:22.384Z,71.25
2023-02-13T11:05:54.425Z,71.00
2023-02-13T11:08:26.078Z,66.50
2023-02-13T11:10:55.038Z,68.75
2023-02-13T11:13:25.702Z,60.75
2023-02-13T11:16:03.655Z,68.00
2023-02-13T11:18:35.046Z,49.75
2023-02-13T11:21:09.224Z,58.00
2023-02-13T11:23:45.442Z,63.00
2023-02-13T11:26:16.889Z,60.75
2023-02-13T11:28:52.040Z,61.00
2023-02-13T11:31:26.450Z,49.50
2023-02-13T11:33:57.407Z,52.75
2023-02-13T11:36:31.223Z,55.50
2023-02-13T11:39:02.276Z,55.25
2023-02-13T11:41:33.393Z,57.25
2023-02-13T11:44:05.021Z,59.50
2023-02-13T11:46:48.119Z,51.00
2023-02-13T11:49:21.306Z,56.50
2023-02-13T11:51:53.885Z,55.00
2023-02-13T11:54:31.562Z,57.00
2023-02-13T11:57:04.759Z,52.25
2023-02-13T11:59:42.208Z,51.75
2023-02-13T12:02:17.595Z,51.25
2023-02-13T12:04:47.176Z,51.25
2023-02-13T12:07:21.639Z,50.50
2023-02-13T12:09:56.430Z,50.25
2023-02-13T12:12:33.480Z,51.75
2023-02-13T12:15:12.029Z,47.25
2023-02-13T12:17:46.172Z,37.75
2023-02-13T12:20:16.808Z,30.25
2023-02-13T12:23:00.392Z,35.00
2023-02-13T12:25:45.340Z,54.75
2023-02-13T12:28:16.976Z,50.50
2023-02-13T12:31:14.123Z,59.00
2023-02-13T12:34:30.418Z,51.25
2023-02-13T12:37:15.436Z,50.50
2023-02-13T12:39:58.371Z,43.75
2023-02-13T12:42:42.775Z,40.50
2023-02-13T12:45:26.653Z,47.00
2023-02-13T12:48:12.086Z,41.00
2023-02-13T12:50:55.671Z,54.75
2023-02-13T12:53:47.778Z,50.75
2023-02-13T12:56:47.502Z,55.50
2023-02-13T12:59:27.011Z,45.00
2023-02-13T13:02:41.751Z,55.50
2023-02-13T13:05:27.452Z,52.25
2023-02-13T13:08:12.790Z,55.00
2023-02-13T13:10:56.589Z,68.50
2023-02-13T13:13:38.818Z,58.75
2023-02-13T13:16:17.003Z,57.50
2023-02-13T13:19:00.588Z,55.50
2023-02-13T13:21:40.795Z,56.75
2023-02-13T13:24:24.353Z,58.50
2023-02-13T13:26:57.472Z,60.75
2023-02-13T13:29:34.233Z,66.25
2023-02-13T13:32:08.570Z,64.25
2023-02-13T13:34:40.378Z,59.25
2023-02-13T13:37:20.843Z,57.25
2023-02-13T13:39:57.644Z,50.00
2023-02-13T13:42:36.754Z,54.00
2023-02-13T13:45:19.252Z,58.00
2023-02-13T13:48:03.875Z,55.75
2023-02-13T13:50:37.628Z,52.75
2023-02-13T13:53:09.555Z,55.25
2023-02-13T13:56:05.086Z,60.50
2023-02-13T13:58:38.957Z,53.75
2023-02-13T14:01:30.905Z,50.50
2023-02-13T14:04:02.324Z,43.75
2023-02-13T14:07:09.144Z,57.75
2023-02-13T14:09:41.178Z,52.00
2023-02-13T14:12:39.755Z,56.75
2023-02-13T14:15:49.059Z,51.00
2023-02-13T14:18:23.835Z,53.25
2023-02-13T14:20:55.034Z,44.00
2023-02-13T14:23:34.561Z,51.25
2023-02-13T14:26:40.585Z,43.50
2023-02-13T14:29:31.415Z,48.50
2023-02-13T14:32:04.670Z,51.00
2023-02-13T14:34:37.642Z,40.25
2023-02-13T14:37:21.098Z,48.00
2023-02-13T14:40:28.430Z,40.75
2023-02-13T14:43:01.184Z,56.75
2023-02-13T14:45:33.818Z,52.00
2023-02-13T14:48:09.140Z,52.25
2023-02-13T14:50:47.078Z,43.25
2023-02-13T14:53:22.343Z,57.25
2023-02-13T14:55:58.314Z,57.25
2023-02-13T14:58:32.525Z,55.25
2023-02-13T15:01:06.504Z,57.25
2023-02-13T15:03:42.372Z,49.00
2023-02-13T15:06:21.370Z,62.50
2023-02-13T15:08:52.914Z,55.75
2023-02-13T15:11:36.885Z,47.00
2023-02-13T15:14:21.034Z,47.00
2023-02-13T15:16:54.452Z,48.25
2023-02-13T15:19:25.335Z,52.25
2023-02-13T15:21:59.282Z,54.75
2023-02-13T15:24:36.868Z,48.25
2023-02-13T15:27:07.880Z,62.50
2023-02-13T15:29:49.260Z,53.75
2023-02-13T15:32:22.676Z,57.25
2023-02-13T15:34:51.760Z,47.50
2023-02-13T15:37:28.911Z,58.25
2023-02-13T15:40:14.144Z,49.50
2023-02-13T15:42:42.939Z,54.00
2023-02-13T15:45:17.455Z,53.75
2023-02-13T15:47:46.998Z,55.50
2023-02-13T15:50:18.912Z,56.50
2023-02-13T15:52:49.739Z,56.75
2023-02-13T15:55:23.571Z,55.25
2023-02-13T15:57:54.998Z,60.50
2023-02-13T16:00:27.494Z,63.75
2023-02-13T16:02:58.099Z,57.25
2023-02-13T16:05:44.648Z,59.75
2023-02-13T16:08:38.832Z,57.00
2023-02-13T16:11:26.443Z,57.25
2023-02-13T16:14:14.258Z,59.50
2023-02-13T16:16:51.511Z,58.25
2023-02-13T16:19:27.534Z,63.25
2023-02-13T16:21:59.420Z,58.00
2023-02-13T16:24:30.408Z,70.75
2023-02-13T16:26:59.339Z,63.00
2023-02-13T16:29:28.789Z,63.75
2023-02-13T16:32:07.248Z,63.50
2023-02-13T16:34:36.087Z,64.50
2023-02-13T16:37:05.371Z,66.25
2023-02-13T16:39:36.009Z,68.25
2023-02-13T16:42:20.400Z,63.50
2023-02-13T16:44:49.076Z,68.50
2023-02-13T16:47:24.709Z,50.75
2023-02-13T16:49:58.101Z,67.75
2023-02-13T16:52:27.862Z,71.75
2023-02-13T16:54:59.833Z,65.50
2023-02-13T16:57:32.075Z,81.75
2023-02-13T17:00:05.414Z,77.50
2023-02-13T17:02:35.790Z,77.75
2023-02-13T17:05:20.345Z,76.50
2023-02-13T17:07:51.118Z,75.00
2023-02-13T17:10:23.624Z,74.75
2023-02-13T17:12:52.793Z,70.25
2023-02-13T17:15:23.215Z,66.25
2023-02-13T17:17:53.744Z,72.75
2023-02-13T17:20:24.422Z,74.75
2023-02-13T17:22:55.365Z,79.25
2023-02-13T17:25:27.944Z,75.50
2023-02-13T17:27:58.952Z,73.50
2023-02-13T17:30:29.886Z,72.00
2023-02-13T17:33:01.737Z,73.75
2023-02-13T17:35:31.917Z,69.00
2023-02-13T17:38:01.086Z,74.75
2023-02-13T17:40:32.135Z,67.25
2023-02-13T17:43:01.339Z,72.25
2023-02-13T17:45:32.581Z,70.50
2023-02-13T17:48:01.863Z,64.25
2023-02-13T17:50:31.681Z,70.00
2023-02-13T17:53:03.391Z,70.50
2023-02-13T17:55:35.348Z,67.50
2023-02-13T17:58:04.479Z,64.75
2023-02-13T18:00:35.514Z,69.00
2023-02-13T18:03:05.257Z,67.50
2023-02-13T18:05:34.231Z,73.25
2023-02-13T18:08:03.228Z,74.00
2023-02-13T18:10:35.298Z,74.50
2023-02-13T18:13:05.211Z,72.75
2023-02-13T18:15:34.741Z,69.75
2023-02-13T18:18:03.738Z,72.00
2023-02-13T18:20:32.365Z,67.75
2023-02-13T18:23:01.553Z,69.75
2023-02-13T18:25:30.369Z,73.75
2023-02-13T18:28:00.713Z,73.50
2023-02-13T18:30:29.291Z,74.50
2023-02-13T18:33:00.225Z,73.00
2023-02-13T18:35:28.779Z,69.75
2023-02-13T18:37:57.683Z,75.50
2023-02-13T18:40:26.388Z,75.50
2023-02-13T18:42:55.379Z,77.50
2023-02-13T18:45:25.392Z,75.75
2023-02-13T18:47:54.557Z,78.75
2023-02-13T18:50:23.486Z,77.75
2023-02-13T18:52:52.443Z,73.25
2023-02-13T18:55:21.304Z,76.00
2023-02-13T18:57:53.415Z,79.00
2023-02-13T19:00:23.625Z,69.50
2023-02-13T19:02:54.412Z,73.00
2023-02-13T19:05:23.463Z,57.25
2023-02-13T19:07:52.407Z,69.75
2023-02-13T19:10:21.342Z,66.75
2023-02-13T19:12:50.656Z,74.50
2023-02-13T19:15:19.540Z,81.25
2023-02-13T19:17:48.471Z,74.50
2023-02-13T19:20:18.622Z,83.25
2023-02-13T19:22:47.499Z,72.75
2023-02-13T19:25:16.150Z,81.00
2023-02-13T19:27:45.342Z,78.67
2023-02-13T19:30:14.830Z,85.00
2023-02-13T19:32:43.732Z,80.00
2023-02-13T19:35:12.761Z,81.50
2023-02-13T19:37:44.484Z,83.33
2023-02-13T19:40:14.616Z,84.00
2023-02-13T19:42:43.603Z,89.33
2023-02-13T19:45:12.587Z,80.00
2023-02-13T19:47:41.515Z,92.33
2023-02-13T19:50:11.317Z,99.00
2023-02-13T19:52:40.310Z,92.00
2023-02-13T19:55:11.263Z,91.25
2023-02-13T19:57:40.477Z,96.00
2023-02-13T20:00:10.332Z,101.25
2023-02-13T20:02:42.467Z,103.00
2023-02-13T20:05:11.288Z,104.75
2023-02-13T20:07:40.158Z,118.25
2023-02-13T20:10:11.035Z,116.50
2023-02-13T20:12:40.440Z,106.00
2023-02-13T20:15:09.708Z,119.25
2023-02-13T20:17:39.122Z,125.00
2023-02-13T20:20:08.980Z,121.50
2023-02-13T20:22:37.878Z,119.50
2023-02-13T20:25:07.044Z,127.50
2023-02-13T20:27:42.509Z,126.25
2023-02-13T20:30:14.317Z,117.75
2023-02-13T20:32:44.042Z,110.75
2023-02-13T20:35:12.751Z,135.75
2023-02-13T20:37:42.744Z,127.75
2023-02-13T20:40:12.417Z,134.25
2023-02-13T20:42:42.778Z,139.25
2023-02-13T20:45:11.545Z,153.25
2023-02-13T20:47:42.926Z,143.00
2023-02-13T20:50:11.936Z,133.25
2023-02-13T20:52:41.049Z,108.75
2023-02-13T20:55:09.805Z,119.00
2023-02-13T20:57:38.850Z,118.75
2023-02-13T21:00:12.587Z,103.50
2023-02-13T21:02:41.744Z,102.75
2023-02-13T21:05:10.714Z,99.25
2023-02-13T21:07:39.618Z,103.00
2023-02-13T21:10:09.372Z,99.50
2023-02-13T21:12:38.225Z,96.25
2023-02-13T21:15:08.706Z,94.00
2023-02-13T21:17:37.665Z,95.50
2023-02-13T21:20:07.995Z,92.67
2023-02-13T21:22:37.035Z,94.75
2023-02-13T21:25:06.114Z,90.25
2023-02-13T21:27:35.424Z,76.67
2023-02-13T21:30:04.403Z,91.33
2023-02-13T21:32:34.785Z,85.67
2023-02-13T21:35:04.194Z,88.67
2023-02-13T21:37:33.464Z,79.33
2023-02-13T21:40:02.328Z,95.50
2023-02-13T21:42:31.297Z,92.00
2023-02-13T21:44:59.901Z,85.25
2023-02-13T21:47:28.971Z,96.00
2023-02-13T21:49:59.057Z,98.50
2023-02-13T21:52:28.334Z,97.00
2023-02-13T21:54:57.043Z,101.00
2023-02-13T21:57:26.209Z,107.50
2023-02-13T21:59:56.331Z,105.25
2023-02-13T22:02:27.092Z,104.50
2023-02-13T22:04:56.029Z,104.00
2023-02-13T22:07:26.387Z,101.50
2023-02-13T22:09:54.926Z,106.75
2023-02-13T22:12:23.980Z,101.50
2023-02-13T22:14:52.582Z,99.75
2023-02-13T22:17:22.374Z,106.25
2023-02-13T22:19:50.929Z,110.00
2023-02-13T22:22:19.912Z,126.25
2023-02-13T22:24:49.975Z,129.25
2023-02-13T22:27:18.847Z,122.75
2023-02-13T22:29:47.479Z,114.75
2023-02-13T22:32:16.599Z,118.25
2023-02-13T22:34:45.252Z,112.50
2023-02-13T22:37:14.253Z,116.75
2023-02-13T22:39:42.898Z,103.00
2023-02-13T22:42:14.260Z,105.00
2023-02-13T22:44:42.809Z,98.75
2023-02-13T22:47:11.605Z,101.00
2023-02-13T22:49:40.188Z,103.25
2023-02-13T22:52:13.161Z,97.75
2023-02-13T22:54:41.746Z,105.75
2023-02-13T22:57:10.652Z,101.75
2023-02-13T22:59:40.705Z,90.67
2023-02-13T23:02:09.805Z,94.00
2023-02-13T23:04:38.420Z,95.00
2023-02-13T23:07:07.380Z,93.00
2023-02-13T23:09:36.224Z,93.50
2023-02-13T23:12:22.812Z,93.25
2023-02-13T23:14:55.075Z,95.25
2023-02-13T23:17:41.470Z,94.75
2023-02-13T23:20:11.691Z,100.00
2023-02-13T23:22:40.935Z,98.25
2023-02-13T23:25:10.109Z,98.75
2023-02-13T23:27:39.331Z,103.00
2023-02-13T23:30:11.874Z,97.50
2023-02-13T23:32:41.005Z,97.25
2023-02-13T23:35:10.732Z,92.75
2023-02-13T23:37:39.646Z,85.25
2023-02-13T23:40:10.029Z,89.75
2023-02-13T23:42:39.146Z,91.50
2023-02-13T23:45:09.853Z,91.00
2023-02-13T23:47:39.088Z,81.67
2023-02-13T23:50:09.438Z,83.33
2023-02-13T23:52:38.488Z,78.67
2023-02-13T23:55:07.559Z,83.00
2023-02-13T23:57:36.743Z,90.33
